Text Box: All records at near 07:00 local time
Kleivo 1 weather for Jun 2007
Month no. 7
Obs.
Da.
Temp. Dew Point Precip. Wind
Speed
Wind gusts Cloud cover Press. Humidity Wind dir. Sunny OPT
01.06.2007 9,4   0,0 11,3   1 1018,2 82,0 157,5   57,5 %
02.06.2007 10,1   0,4 0,0   1 1028,3 90,0     67,5 %
03.06.2007 14,9   0,0 0,0   1 1028,3 68,0     70,0 %
04.06.2007 9,4   0,0 0,0   10 1028,3 32,0   1 87,5 %
05.06.2007 10,9   0,0 0,0   10 1028,3 32,0   1 90,0 %
06.06.2007 11,4   0,0 0,0   10 1028,3 32,0   1 90,0 %
07.06.2007 13,7   0,0 0,0   10 1028,3 32,0   1 92,5 %
08.06.2007 13,8   0,0 0,0   10 1028,3 32,0   1 92,5 %
09.06.2007 15,4   0,0 0,0   10 1028,3 32,0   1 95,0 %
10.06.2007 13,4   0,0 0,0   10 1028,3 32,0   1 92,5 %
11.06.2007 13,1   0,0 0,0   10 1028,3 32,0   1 92,5 %
12.06.2007 9,3   0,0 0,0   10 1028,3 32,0   1 87,5 %
13.06.2007 7,4   0,0 0,0   10 1028,3 32,0   1 85,0 %
14.06.2007 5,3   0,0 0,0   10 0,0 0,0   1 85,0 %
15.06.2007 7,5   0,0 0,0   10 0,0 0,0   1 87,5 %
16.06.2007 8,1   0,0 0,0   10 1007,3 90,0   1 87,5 %
17.06.2007 10,9   99,3 0,0   10 1002,3 91,0   1 65,0 %
18.06.2007 11,3   1,5 0,0   10 1008,4 93,0   1 90,0 %
19.06.2007 9,9   0,0 0,0   10 1009,0 80,0   1 87,5 %
20.06.2007 9,2   0,0 0,0   10 1009,0 80,0   1 87,5 %
21.06.2007 12,0   0,0 0,0   10 1009,0 80,0   1 90,0 %
22.06.2007 10,4   0,7 0,0   10 0,0 0,0   1 90,0 %
23.06.2007 10,6   19,6 0,0   10 0,0 0,0   1 75,0 %
24.06.2007 10,4   0,0 0,0   10 0,0 0,0   1 90,0 %
25.06.2007 9,8   0,0 0,0   8 1007,3 93,0   1 82,5 %
26.06.2007 10,6   0,0 6,4   8 1000,9 58,0 337,5 1 82,5 %
27.06.2007 7,9   0,0 6,4   8 1000,9 58,0 337,5 1 80,0 %
28.06.2007 7,6   1,5 6,4   8 1000,9 58,0 337,5 1 80,0 %
29.06.2007 8,5   0,0 0,0   9 0,0 0,0   1 85,0 %
30.06.2007 11,9   0,5 0,0   1 1001,9 93,0   1 67,5 %
                       
Avrg/Sum 10,5   123,5 1,0   8,5 813,8 47,8 292,5 27 83,8 %